sensor_id;sensor_type;location;lat;lon;timestamp;pressure;altitude;pressure_sealevel;temperature;humidity
40372;BME280;28564;53.346;-6.554;2023-04-12T00:00:18;98282.03;;;5.54;50.06
40372;BME280;28564;53.346;-6.554;2023-04-12T00:02:45;98285.00;;;5.23;50.20
40372;BME280;28564;53.346;-6.554;2023-04-12T00:05:12;98286.02;;;5.45;50.30
40372;BME280;28564;53.346;-6.554;2023-04-12T00:07:40;98282.40;;;5.44;50.40
40372;BME280;28564;53.346;-6.554;2023-04-12T00:10:08;98280.88;;;5.42;50.55
40372;BME280;28564;53.346;-6.554;2023-04-12T00:12:36;98282.10;;;5.19;50.59
40372;BME280;28564;53.346;-6.554;2023-04-12T00:15:04;98287.51;;;5.46;50.72
40372;BME280;28564;53.346;-6.554;2023-04-12T00:17:31;98282.45;;;5.42;50.83
40372;BME280;28564;53.346;-6.554;2023-04-12T00:19:59;98281.53;;;5.45;50.94
40372;BME280;28564;53.346;-6.554;2023-04-12T00:22:26;98282.00;;;5.18;51.00
40372;BME280;28564;53.346;-6.554;2023-04-12T00:24:54;98280.11;;;5.17;50.99
40372;BME280;28564;53.346;-6.554;2023-04-12T00:27:21;98284.49;;;5.17;51.03
40372;BME280;28564;53.346;-6.554;2023-04-12T00:29:48;98283.57;;;5.21;51.00
40372;BME280;28564;53.346;-6.554;2023-04-12T00:32:16;98284.71;;;5.20;51.27
40372;BME280;28564;53.346;-6.554;2023-04-12T00:34:43;98278.92;;;5.25;51.05
40372;BME280;28564;53.346;-6.554;2023-04-12T00:37:11;98279.15;;;5.26;50.85
40372;BME280;28564;53.346;-6.554;2023-04-12T00:39:38;98276.01;;;5.49;50.79
40372;BME280;28564;53.346;-6.554;2023-04-12T00:42:06;98274.32;;;5.20;50.71
40372;BME280;28564;53.346;-6.554;2023-04-12T00:44:33;98271.74;;;5.41;50.80
40372;BME280;28564;53.346;-6.554;2023-04-12T00:47:01;98270.34;;;5.43;50.61
40372;BME280;28564;53.346;-6.554;2023-04-12T00:49:29;98265.29;;;5.42;50.38
40372;BME280;28564;53.346;-6.554;2023-04-12T00:51:59;98263.81;;;5.39;50.22
40372;BME280;28564;53.346;-6.554;2023-04-12T00:54:26;98262.85;;;5.37;50.09
40372;BME280;28564;53.346;-6.554;2023-04-12T00:56:54;98260.28;;;5.07;50.09
40372;BME280;28564;53.346;-6.554;2023-04-12T00:59:22;98253.70;;;5.35;50.01
40372;BME280;28564;53.346;-6.554;2023-04-12T01:01:49;98255.91;;;5.36;49.97
40372;BME280;28564;53.346;-6.554;2023-04-12T01:04:17;98246.51;;;5.34;49.81
40372;BME280;28564;53.346;-6.554;2023-04-12T01:07:00;98242.68;;;5.36;49.69
40372;BME280;28564;53.346;-6.554;2023-04-12T01:09:35;98239.36;;;5.39;49.43
40372;BME280;28564;53.346;-6.554;2023-04-12T01:12:15;98243.42;;;5.37;49.37
40372;BME280;28564;53.346;-6.554;2023-04-12T01:14:53;98245.37;;;5.34;49.18
40372;BME280;28564;53.346;-6.554;2023-04-12T01:17:28;98240.15;;;5.26;49.32
40372;BME280;28564;53.346;-6.554;2023-04-12T01:19:59;98251.75;;;5.24;49.35
40372;BME280;28564;53.346;-6.554;2023-04-12T01:22:41;98244.88;;;5.23;49.37
40372;BME280;28564;53.346;-6.554;2023-04-12T01:25:22;98246.62;;;5.17;49.36
40372;BME280;28564;53.346;-6.554;2023-04-12T01:27:55;98237.46;;;5.17;49.27
40372;BME280;28564;53.346;-6.554;2023-04-12T01:30:27;98229.42;;;5.15;49.31
40372;BME280;28564;53.346;-6.554;2023-04-12T01:32:56;98226.91;;;5.09;49.38
40372;BME280;28564;53.346;-6.554;2023-04-12T01:35:29;98222.32;;;5.08;49.30
40372;BME280;28564;53.346;-6.554;2023-04-12T01:37:57;98222.14;;;5.03;49.52
40372;BME280;28564;53.346;-6.554;2023-04-12T01:40:28;98225.54;;;5.04;49.63
40372;BME280;28564;53.346;-6.554;2023-04-12T01:43:04;98220.71;;;4.79;49.62
40372;BME280;28564;53.346;-6.554;2023-04-12T01:45:32;98224.80;;;5.04;49.57
40372;BME280;28564;53.346;-6.554;2023-04-12T01:48:00;98221.49;;;5.04;49.48
40372;BME280;28564;53.346;-6.554;2023-04-12T01:50:36;98218.37;;;5.04;49.49
40372;BME280;28564;53.346;-6.554;2023-04-12T01:53:10;98209.83;;;5.02;49.37
40372;BME280;28564;53.346;-6.554;2023-04-12T01:55:40;98197.89;;;4.99;49.43
40372;BME280;28564;53.346;-6.554;2023-04-12T01:58:10;98194.05;;;4.99;49.53
40372;BME280;28564;53.346;-6.554;2023-04-12T02:00:39;98189.36;;;5.02;49.64
40372;BME280;28564;53.346;-6.554;2023-04-12T02:03:07;98184.99;;;5.04;49.43
40372;BME280;28564;53.346;-6.554;2023-04-12T02:05:35;98177.15;;;5.03;49.40
40372;BME280;28564;53.346;-6.554;2023-04-12T02:08:03;98169.76;;;4.99;49.33
40372;BME280;28564;53.346;-6.554;2023-04-12T02:10:32;98168.62;;;4.91;49.41
40372;BME280;28564;53.346;-6.554;2023-04-12T02:13:00;98167.66;;;5.12;49.61
40372;BME280;28564;53.346;-6.554;2023-04-12T02:15:28;98159.57;;;4.93;50.15
40372;BME280;28564;53.346;-6.554;2023-04-12T02:17:55;98153.45;;;5.26;50.10
40372;BME280;28564;53.346;-6.554;2023-04-12T02:20:23;98134.51;;;5.06;49.79
40372;BME280;28564;53.346;-6.554;2023-04-12T02:22:50;98132.34;;;5.22;49.69
40372;BME280;28564;53.346;-6.554;2023-04-12T02:25:17;98125.26;;;4.95;49.96
40372;BME280;28564;53.346;-6.554;2023-04-12T02:27:45;98111.34;;;4.88;49.92
40372;BME280;28564;53.346;-6.554;2023-04-12T02:30:13;98098.06;;;5.33;49.82
40372;BME280;28564;53.346;-6.554;2023-04-12T02:32:40;98102.75;;;4.78;49.91
40372;BME280;28564;53.346;-6.554;2023-04-12T02:35:07;98095.37;;;4.73;49.99
40372;BME280;28564;53.346;-6.554;2023-04-12T02:37:35;98092.98;;;4.70;50.00
40372;BME280;28564;53.346;-6.554;2023-04-12T02:40:02;98093.68;;;4.66;50.06
40372;BME280;28564;53.346;-6.554;2023-04-12T02:42:29;98084.49;;;4.85;50.18
40372;BME280;28564;53.346;-6.554;2023-04-12T02:44:57;98086.33;;;4.61;50.23
40372;BME280;28564;53.346;-6.554;2023-04-12T02:47:24;98078.04;;;4.80;50.29
40372;BME280;28564;53.346;-6.554;2023-04-12T02:49:52;98071.50;;;5.03;50.29
40372;BME280;28564;53.346;-6.554;2023-04-12T02:52:19;98059.88;;;4.50;50.36
40372;BME280;28564;53.346;-6.554;2023-04-12T02:54:49;98062.72;;;4.56;50.26
40372;BME280;28564;53.346;-6.554;2023-04-12T02:57:17;98060.80;;;5.01;50.30
40372;BME280;28564;53.346;-6.554;2023-04-12T02:59:44;98046.52;;;4.48;50.34
40372;BME280;28564;53.346;-6.554;2023-04-12T03:02:11;98041.50;;;4.68;50.45
40372;BME280;28564;53.346;-6.554;2023-04-12T03:04:39;98029.80;;;4.95;50.59
40372;BME280;28564;53.346;-6.554;2023-04-12T03:07:06;98023.23;;;4.50;50.49
40372;BME280;28564;53.346;-6.554;2023-04-12T03:09:34;98009.68;;;4.73;50.41
40372;BME280;28564;53.346;-6.554;2023-04-12T03:12:01;98010.61;;;4.49;50.41
40372;BME280;28564;53.346;-6.554;2023-04-12T03:14:29;98006.56;;;4.69;50.42
40372;BME280;28564;53.346;-6.554;2023-04-12T03:16:56;97992.64;;;4.97;50.32
40372;BME280;28564;53.346;-6.554;2023-04-12T03:19:24;97979.26;;;4.99;50.43
40372;BME280;28564;53.346;-6.554;2023-04-12T03:21:51;97969.99;;;4.52;50.23
40372;BME280;28564;53.346;-6.554;2023-04-12T03:24:19;97959.40;;;4.50;50.19
40372;BME280;28564;53.346;-6.554;2023-04-12T03:26:46;97957.74;;;4.69;50.25
40372;BME280;28564;53.346;-6.554;2023-04-12T03:29:13;97958.27;;;4.96;50.20
40372;BME280;28564;53.346;-6.554;2023-04-12T03:31:40;97951.10;;;4.48;50.23
40372;BME280;28564;53.346;-6.554;2023-04-12T03:34:08;97940.49;;;4.72;50.12
40372;BME280;28564;53.346;-6.554;2023-04-12T03:36:35;97923.68;;;4.69;50.06
40372;BME280;28564;53.346;-6.554;2023-04-12T03:39:03;97917.78;;;4.68;50.06
40372;BME280;28564;53.346;-6.554;2023-04-12T03:41:30;97907.66;;;4.95;50.04
40372;BME280;28564;53.346;-6.554;2023-04-12T03:43:58;97894.35;;;4.45;50.02
40372;BME280;28564;53.346;-6.554;2023-04-12T03:46:25;97887.81;;;4.93;50.01
40372;BME280;28564;53.346;-6.554;2023-04-12T03:48:53;97889.22;;;4.48;49.98
40372;BME280;28564;53.346;-6.554;2023-04-12T03:51:20;97876.49;;;4.72;49.89
40372;BME280;28564;53.346;-6.554;2023-04-12T03:53:47;97863.82;;;4.74;49.84
40372;BME280;28564;53.346;-6.554;2023-04-12T03:56:15;97862.58;;;4.76;49.83
40372;BME280;28564;53.346;-6.554;2023-04-12T03:58:42;97855.32;;;4.80;49.79
40372;BME280;28564;53.346;-6.554;2023-04-12T04:01:10;97854.24;;;4.83;49.79
40372;BME280;28564;53.346;-6.554;2023-04-12T04:03:38;97839.94;;;4.66;49.73
40372;BME280;28564;53.346;-6.554;2023-04-12T04:06:06;97837.64;;;4.69;49.57
40372;BME280;28564;53.346;-6.554;2023-04-12T04:08:34;97831.47;;;4.69;49.50
40372;BME280;28564;53.346;-6.554;2023-04-12T04:11:01;97809.03;;;4.91;49.39
40372;BME280;28564;53.346;-6.554;2023-04-12T04:13:28;97804.83;;;4.68;49.36
40372;BME280;28564;53.346;-6.554;2023-04-12T04:16:01;97801.59;;;4.68;49.24
40372;BME280;28564;53.346;-6.554;2023-04-12T04:18:28;97792.26;;;5.15;49.23
40372;BME280;28564;53.346;-6.554;2023-04-12T04:20:56;97782.61;;;4.65;49.15
40372;BME280;28564;53.346;-6.554;2023-04-12T04:23:23;97789.25;;;4.64;49.27
40372;BME280;28564;53.346;-6.554;2023-04-12T04:25:51;97776.45;;;4.66;49.19
40372;BME280;28564;53.346;-6.554;2023-04-12T04:28:18;97777.90;;;4.70;49.03
40372;BME280;28564;53.346;-6.554;2023-04-12T04:30:45;97772.05;;;4.93;48.93
40372;BME280;28564;53.346;-6.554;2023-04-12T04:33:13;97764.44;;;4.74;48.88
40372;BME280;28564;53.346;-6.554;2023-04-12T04:35:41;97758.01;;;4.79;48.81
40372;BME280;28564;53.346;-6.554;2023-04-12T04:38:08;97749.02;;;4.84;48.82
40372;BME280;28564;53.346;-6.554;2023-04-12T04:40:36;97739.08;;;5.09;48.74
40372;BME280;28564;53.346;-6.554;2023-04-12T04:43:04;97726.50;;;4.91;48.69
40372;BME280;28564;53.346;-6.554;2023-04-12T04:45:31;97718.21;;;4.95;48.30
40372;BME280;28564;53.346;-6.554;2023-04-12T04:47:58;97709.32;;;4.66;48.32
40372;BME280;28564;53.346;-6.554;2023-04-12T04:50:26;97710.30;;;4.63;48.57
40372;BME280;28564;53.346;-6.554;2023-04-12T04:52:53;97707.35;;;5.19;48.37
40372;BME280;28564;53.346;-6.554;2023-04-12T04:55:21;97709.15;;;5.01;48.41
40372;BME280;28564;53.346;-6.554;2023-04-12T04:57:48;97699.47;;;5.07;48.12
40372;BME280;28564;53.346;-6.554;2023-04-12T05:00:16;97690.16;;;5.11;47.96
40372;BME280;28564;53.346;-6.554;2023-04-12T05:02:44;97680.20;;;5.13;47.91
40372;BME280;28564;53.346;-6.554;2023-04-12T05:05:12;97660.82;;;4.87;47.86
40372;BME280;28564;53.346;-6.554;2023-04-12T05:07:39;97651.05;;;4.92;47.45
40372;BME280;28564;53.346;-6.554;2023-04-12T05:10:07;97644.77;;;5.19;47.31
40372;BME280;28564;53.346;-6.554;2023-04-12T05:12:35;97622.01;;;5.16;47.28
40372;BME280;28564;53.346;-6.554;2023-04-12T05:15:02;97620.98;;;5.18;47.12
40372;BME280;28564;53.346;-6.554;2023-04-12T05:17:29;97613.54;;;5.16;47.03
40372;BME280;28564;53.346;-6.554;2023-04-12T05:19:57;97620.75;;;5.16;46.95
40372;BME280;28564;53.346;-6.554;2023-04-12T05:22:25;97613.74;;;5.20;46.64
40372;BME280;28564;53.346;-6.554;2023-04-12T05:24:52;97597.14;;;5.19;46.70
40372;BME280;28564;53.346;-6.554;2023-04-12T05:27:19;97592.05;;;5.26;46.47
40372;BME280;28564;53.346;-6.554;2023-04-12T05:29:47;97588.32;;;5.32;46.34
40372;BME280;28564;53.346;-6.554;2023-04-12T05:32:14;97585.66;;;5.41;46.35
40372;BME280;28564;53.346;-6.554;2023-04-12T05:34:42;97564.89;;;5.29;46.29
40372;BME280;28564;53.346;-6.554;2023-04-12T05:37:09;97563.14;;;5.45;45.92
40372;BME280;28564;53.346;-6.554;2023-04-12T05:39:37;97564.70;;;5.61;45.79
40372;BME280;28564;53.346;-6.554;2023-04-12T05:42:05;97547.08;;;5.79;44.96
40372;BME280;28564;53.346;-6.554;2023-04-12T05:44:34;97537.74;;;5.91;44.61
40372;BME280;28564;53.346;-6.554;2023-04-12T05:47:02;97526.28;;;5.75;44.88
40372;BME280;28564;53.346;-6.554;2023-04-12T05:49:29;97515.05;;;6.05;44.68
40372;BME280;28564;53.346;-6.554;2023-04-12T05:51:56;97507.26;;;5.87;44.72
40372;BME280;28564;53.346;-6.554;2023-04-12T05:54:24;97488.86;;;5.91;44.74
40372;BME280;28564;53.346;-6.554;2023-04-12T05:56:51;97475.23;;;6.19;44.44
40372;BME280;28564;53.346;-6.554;2023-04-12T05:59:18;97466.22;;;6.02;44.34
40372;BME280;28564;53.346;-6.554;2023-04-12T06:01:46;97448.15;;;6.08;43.91
40372;BME280;28564;53.346;-6.554;2023-04-12T06:04:13;97439.05;;;6.14;43.77
40372;BME280;28564;53.346;-6.554;2023-04-12T06:06:40;97427.05;;;6.15;43.75
40372;BME280;28564;53.346;-6.554;2023-04-12T06:09:08;97415.52;;;6.10;44.23
40372;BME280;28564;53.346;-6.554;2023-04-12T06:11:35;97406.09;;;6.09;44.38
40372;BME280;28564;53.346;-6.554;2023-04-12T06:14:03;97401.57;;;6.36;44.34
40372;BME280;28564;53.346;-6.554;2023-04-12T06:16:30;97395.96;;;6.27;44.13
40372;BME280;28564;53.346;-6.554;2023-04-12T06:18:57;97381.97;;;6.40;44.04
40372;BME280;28564;53.346;-6.554;2023-04-12T06:21:25;97370.03;;;6.50;44.31
40372;BME280;28564;53.346;-6.554;2023-04-12T06:23:52;97361.84;;;6.58;44.63
40372;BME280;28564;53.346;-6.554;2023-04-12T06:26:19;97354.33;;;6.66;44.77
40372;BME280;28564;53.346;-6.554;2023-04-12T06:28:47;97346.47;;;6.69;45.25
40372;BME280;28564;53.346;-6.554;2023-04-12T06:31:15;97347.39;;;6.48;45.80
40372;BME280;28564;53.346;-6.554;2023-04-12T06:33:42;97340.02;;;6.25;46.15
40372;BME280;28564;53.346;-6.554;2023-04-12T06:36:10;97336.62;;;6.31;46.51
40372;BME280;28564;53.346;-6.554;2023-04-12T06:38:37;97334.46;;;6.31;47.05
40372;BME280;28564;53.346;-6.554;2023-04-12T06:41:05;97329.48;;;6.29;47.46
40372;BME280;28564;53.346;-6.554;2023-04-12T06:43:31;97328.86;;;6.82;47.92
40372;BME280;28564;53.346;-6.554;2023-04-12T06:45:59;97324.51;;;6.88;48.22
40372;BME280;28564;53.346;-6.554;2023-04-12T06:48:26;97325.64;;;6.91;48.05
40372;BME280;28564;53.346;-6.554;2023-04-12T06:50:54;97322.30;;;6.39;48.26
40372;BME280;28564;53.346;-6.554;2023-04-12T06:53:21;97315.72;;;6.65;48.29
40372;BME280;28564;53.346;-6.554;2023-04-12T06:55:48;97306.17;;;6.82;48.65
40372;BME280;28564;53.346;-6.554;2023-04-12T06:58:16;97297.30;;;6.80;48.75
40372;BME280;28564;53.346;-6.554;2023-04-12T07:00:43;97289.97;;;6.75;49.02
40372;BME280;28564;53.346;-6.554;2023-04-12T07:03:10;97285.31;;;6.72;49.14
40372;BME280;28564;53.346;-6.554;2023-04-12T07:05:38;97281.35;;;6.44;49.23
40372;BME280;28564;53.346;-6.554;2023-04-12T07:08:07;97277.21;;;6.63;49.61
40372;BME280;28564;53.346;-6.554;2023-04-12T07:10:34;97271.83;;;6.66;49.68
40372;BME280;28564;53.346;-6.554;2023-04-12T07:13:02;97267.31;;;6.69;49.89
40372;BME280;28564;53.346;-6.554;2023-04-12T07:15:29;97261.72;;;6.75;49.87
40372;BME280;28564;53.346;-6.554;2023-04-12T07:17:56;97253.72;;;6.57;49.91
40372;BME280;28564;53.346;-6.554;2023-04-12T07:20:24;97245.78;;;6.87;49.94
40372;BME280;28564;53.346;-6.554;2023-04-12T07:22:51;97234.39;;;6.67;49.93
40372;BME280;28564;53.346;-6.554;2023-04-12T07:25:18;97234.00;;;6.50;49.97
40372;BME280;28564;53.346;-6.554;2023-04-12T07:27:46;97228.86;;;6.85;49.90
40372;BME280;28564;53.346;-6.554;2023-04-12T07:30:13;97226.37;;;6.70;49.86
40372;BME280;28564;53.346;-6.554;2023-04-12T07:32:40;97224.70;;;6.83;49.93
40372;BME280;28564;53.346;-6.554;2023-04-12T07:35:08;97226.67;;;6.95;49.90
40372;BME280;28564;53.346;-6.554;2023-04-12T07:37:36;97228.04;;;7.12;50.00
40372;BME280;28564;53.346;-6.554;2023-04-12T07:40:04;97224.45;;;7.30;50.05
40372;BME280;28564;53.346;-6.554;2023-04-12T07:42:31;97215.98;;;7.48;49.92
40372;BME280;28564;53.346;-6.554;2023-04-12T07:44:59;97211.45;;;7.66;49.79
40372;BME280;28564;53.346;-6.554;2023-04-12T07:47:26;97216.05;;;7.87;49.69
40372;BME280;28564;53.346;-6.554;2023-04-12T07:49:53;97220.78;;;7.85;49.43
40372;BME280;28564;53.346;-6.554;2023-04-12T07:52:21;97221.18;;;7.87;48.72
40372;BME280;28564;53.346;-6.554;2023-04-12T07:54:48;97216.27;;;7.57;48.42
40372;BME280;28564;53.346;-6.554;2023-04-12T07:57:15;97217.98;;;7.79;48.09
40372;BME280;28564;53.346;-6.554;2023-04-12T07:59:43;97218.76;;;7.98;48.44
40372;BME280;28564;53.346;-6.554;2023-04-12T08:02:10;97218.19;;;7.80;48.67
40372;BME280;28564;53.346;-6.554;2023-04-12T08:04:37;97220.14;;;7.96;49.04
40372;BME280;28564;53.346;-6.554;2023-04-12T08:07:04;97220.95;;;7.92;48.09
40372;BME280;28564;53.346;-6.554;2023-04-12T08:09:32;97224.54;;;8.07;48.52
40372;BME280;28564;53.346;-6.554;2023-04-12T08:11:59;97223.91;;;8.26;48.15
40372;BME280;28564;53.346;-6.554;2023-04-12T08:14:26;97220.52;;;8.34;47.13
40372;BME280;28564;53.346;-6.554;2023-04-12T08:16:54;97217.55;;;8.29;46.41
40372;BME280;28564;53.346;-6.554;2023-04-12T08:19:21;97225.93;;;8.15;46.20
40372;BME280;28564;53.346;-6.554;2023-04-12T08:21:48;97224.83;;;7.98;46.59
40372;BME280;28564;53.346;-6.554;2023-04-12T08:24:16;97232.36;;;7.89;46.62
40372;BME280;28564;53.346;-6.554;2023-04-12T08:26:44;97236.45;;;7.74;47.12
40372;BME280;28564;53.346;-6.554;2023-04-12T08:29:11;97238.97;;;7.92;47.53
40372;BME280;28564;53.346;-6.554;2023-04-12T08:31:38;97234.74;;;8.02;47.71
40372;BME280;28564;53.346;-6.554;2023-04-12T08:34:06;97237.26;;;8.15;48.01
40372;BME280;28564;53.346;-6.554;2023-04-12T08:36:34;97244.34;;;8.27;48.18
40372;BME280;28564;53.346;-6.554;2023-04-12T08:39:02;97252.80;;;8.17;48.05
40372;BME280;28564;53.346;-6.554;2023-04-12T08:41:29;97249.76;;;8.12;47.84
40372;BME280;28564;53.346;-6.554;2023-04-12T08:43:58;97253.66;;;8.30;48.11
40372;BME280;28564;53.346;-6.554;2023-04-12T08:46:26;97256.70;;;8.08;48.04
40372;BME280;28564;53.346;-6.554;2023-04-12T08:48:53;97262.76;;;8.29;48.01
40372;BME280;28564;53.346;-6.554;2023-04-12T08:51:21;97259.26;;;8.03;48.46
40372;BME280;28564;53.346;-6.554;2023-04-12T08:53:48;97265.88;;;8.06;48.19
40372;BME280;28564;53.346;-6.554;2023-04-12T08:56:16;97267.50;;;8.18;48.31
40372;BME280;28564;53.346;-6.554;2023-04-12T08:58:45;97272.79;;;8.28;48.13
40372;BME280;28564;53.346;-6.554;2023-04-12T09:01:14;97275.53;;;8.51;47.86
40372;BME280;28564;53.346;-6.554;2023-04-12T09:03:42;97282.64;;;8.72;47.81
40372;BME280;28564;53.346;-6.554;2023-04-12T09:06:11;97287.87;;;8.94;47.87
40372;BME280;28564;53.346;-6.554;2023-04-12T09:08:50;97289.63;;;9.08;47.83
40372;BME280;28564;53.346;-6.554;2023-04-12T09:11:22;97294.66;;;9.06;47.60
40372;BME280;28564;53.346;-6.554;2023-04-12T09:13:49;97294.72;;;9.09;47.37
40372;BME280;28564;53.346;-6.554;2023-04-12T09:16:16;97300.47;;;9.48;46.85
40372;BME280;28564;53.346;-6.554;2023-04-12T09:18:48;97293.59;;;9.27;45.83
40372;BME280;28564;53.346;-6.554;2023-04-12T09:21:15;97294.25;;;9.18;46.17
40372;BME280;28564;53.346;-6.554;2023-04-12T09:23:42;97291.41;;;9.04;46.27
40372;BME280;28564;53.346;-6.554;2023-04-12T09:26:26;97296.76;;;9.01;46.20
40372;BME280;28564;53.346;-6.554;2023-04-12T09:28:53;97304.50;;;9.34;45.79
40372;BME280;28564;53.346;-6.554;2023-04-12T09:31:20;97303.34;;;9.00;45.63
40372;BME280;28564;53.346;-6.554;2023-04-12T09:33:47;97314.35;;;8.81;45.25
40372;BME280;28564;53.346;-6.554;2023-04-12T09:36:15;97320.59;;;8.94;45.75
40372;BME280;28564;53.346;-6.554;2023-04-12T09:38:58;97318.02;;;9.35;45.60
40372;BME280;28564;53.346;-6.554;2023-04-12T09:41:30;97330.00;;;9.13;45.83
40372;BME280;28564;53.346;-6.554;2023-04-12T09:43:58;97336.31;;;9.37;44.94
40372;BME280;28564;53.346;-6.554;2023-04-12T09:46:25;97333.78;;;9.73;44.71
40372;BME280;28564;53.346;-6.554;2023-04-12T09:48:53;97340.09;;;9.84;44.60
40372;BME280;28564;53.346;-6.554;2023-04-12T09:51:25;97344.06;;;9.78;43.64
40372;BME280;28564;53.346;-6.554;2023-04-12T09:53:53;97354.10;;;9.62;43.36
40372;BME280;28564;53.346;-6.554;2023-04-12T09:56:21;97347.80;;;9.95;43.19
40372;BME280;28564;53.346;-6.554;2023-04-12T09:58:51;97350.06;;;10.02;42.98
40372;BME280;28564;53.346;-6.554;2023-04-12T10:01:20;97363.02;;;9.75;43.19
40372;BME280;28564;53.346;-6.554;2023-04-12T10:03:48;97362.56;;;10.03;42.58
40372;BME280;28564;53.346;-6.554;2023-04-12T10:06:16;97364.21;;;9.68;42.62
40372;BME280;28564;53.346;-6.554;2023-04-12T10:08:44;97361.98;;;9.94;42.24
40372;BME280;28564;53.346;-6.554;2023-04-12T10:11:11;97385.65;;;10.00;41.99
40372;BME280;28564;53.346;-6.554;2023-04-12T10:13:40;97378.33;;;10.14;42.39
40372;BME280;28564;53.346;-6.554;2023-04-12T10:16:09;97378.96;;;10.15;42.36
40372;BME280;28564;53.346;-6.554;2023-04-12T10:18:37;97386.65;;;10.36;41.17
40372;BME280;28564;53.346;-6.554;2023-04-12T10:21:05;97390.50;;;10.49;41.13
40372;BME280;28564;53.346;-6.554;2023-04-12T10:23:34;97407.70;;;10.63;41.08
40372;BME280;28564;53.346;-6.554;2023-04-12T10:26:03;97401.11;;;10.43;40.94
40372;BME280;28564;53.346;-6.554;2023-04-12T10:28:31;97401.61;;;10.50;41.07
40372;BME280;28564;53.346;-6.554;2023-04-12T10:30:59;97412.70;;;10.82;40.74
40372;BME280;28564;53.346;-6.554;2023-04-12T10:33:27;97408.67;;;10.64;40.00
40372;BME280;28564;53.346;-6.554;2023-04-12T10:35:57;97415.94;;;10.64;40.15
40372;BME280;28564;53.346;-6.554;2023-04-12T10:38:26;97421.51;;;10.51;40.43
40372;BME280;28564;53.346;-6.554;2023-04-12T10:41:26;97427.68;;;10.33;40.39
40372;BME280;28564;53.346;-6.554;2023-04-12T10:44:23;97440.39;;;10.42;40.37
40372;BME280;28564;53.346;-6.554;2023-04-12T10:46:51;97434.38;;;10.50;40.47
40372;BME280;28564;53.346;-6.554;2023-04-12T10:49:18;97437.93;;;10.44;40.67
40372;BME280;28564;53.346;-6.554;2023-04-12T10:52:11;97444.63;;;10.55;40.61
40372;BME280;28564;53.346;-6.554;2023-04-12T10:54:39;97447.76;;;10.69;40.27
40372;BME280;28564;53.346;-6.554;2023-04-12T10:57:07;97461.89;;;10.85;39.66
40372;BME280;28564;53.346;-6.554;2023-04-12T11:00:07;97460.25;;;11.01;39.07
40372;BME280;28564;53.346;-6.554;2023-04-12T11:02:35;97462.86;;;11.04;39.27
40372;BME280;28564;53.346;-6.554;2023-04-12T11:05:29;97459.12;;;11.01;39.23
40372;BME280;28564;53.346;-6.554;2023-04-12T11:07:59;97468.89;;;11.00;39.75
40372;BME280;28564;53.346;-6.554;2023-04-12T11:10:26;97476.16;;;11.04;40.08
40372;BME280;28564;53.346;-6.554;2023-04-12T11:12:54;97478.74;;;11.27;39.70
40372;BME280;28564;53.346;-6.554;2023-04-12T11:15:25;97478.96;;;11.08;40.01
40372;BME280;28564;53.346;-6.554;2023-04-12T11:17:54;97495.14;;;11.56;39.24
40372;BME280;28564;53.346;-6.554;2023-04-12T11:20:21;97498.99;;;11.67;38.51
40372;BME280;28564;53.346;-6.554;2023-04-12T11:22:49;97492.58;;;11.36;38.75
40372;BME280;28564;53.346;-6.554;2023-04-12T11:25:18;97501.19;;;11.30;38.75
40372;BME280;28564;53.346;-6.554;2023-04-12T11:27:51;97494.30;;;11.25;38.28
40372;BME280;28564;53.346;-6.554;2023-04-12T11:30:19;97508.00;;;11.42;38.61
40372;BME280;28564;53.346;-6.554;2023-04-12T11:32:46;97505.59;;;11.25;38.84
40372;BME280;28564;53.346;-6.554;2023-04-12T11:35:14;97502.14;;;11.16;39.31
40372;BME280;28564;53.346;-6.554;2023-04-12T11:37:43;97504.44;;;11.14;39.71
40372;BME280;28564;53.346;-6.554;2023-04-12T11:40:15;97510.69;;;11.39;39.76
40372;BME280;28564;53.346;-6.554;2023-04-12T11:42:43;97504.02;;;11.03;39.61
40372;BME280;28564;53.346;-6.554;2023-04-12T11:45:10;97504.85;;;11.11;39.99
40372;BME280;28564;53.346;-6.554;2023-04-12T11:47:41;97508.31;;;11.12;40.42
40372;BME280;28564;53.346;-6.554;2023-04-12T11:50:08;97513.36;;;10.88;40.17
40372;BME280;28564;53.346;-6.554;2023-04-12T11:52:36;97510.12;;;11.11;39.54
40372;BME280;28564;53.346;-6.554;2023-04-12T11:55:04;97511.08;;;11.16;39.65
40372;BME280;28564;53.346;-6.554;2023-04-12T11:57:32;97528.11;;;11.10;39.91
40372;BME280;28564;53.346;-6.554;2023-04-12T12:00:00;97520.63;;;11.49;39.27
40372;BME280;28564;53.346;-6.554;2023-04-12T12:02:28;97531.38;;;11.75;38.68
40372;BME280;28564;53.346;-6.554;2023-04-12T12:04:59;97536.56;;;11.54;38.79
40372;BME280;28564;53.346;-6.554;2023-04-12T12:07:27;97536.33;;;11.69;38.64
40372;BME280;28564;53.346;-6.554;2023-04-12T12:09:55;97540.98;;;11.82;38.11
40372;BME280;28564;53.346;-6.554;2023-04-12T12:12:23;97531.46;;;11.67;38.57
40372;BME280;28564;53.346;-6.554;2023-04-12T12:14:50;97555.55;;;11.84;38.63
40372;BME280;28564;53.346;-6.554;2023-04-12T12:17:17;97545.31;;;11.35;38.29
40372;BME280;28564;53.346;-6.554;2023-04-12T12:19:45;97551.85;;;11.19;38.42
40372;BME280;28564;53.346;-6.554;2023-04-12T12:22:19;97549.69;;;11.62;38.87
40372;BME280;28564;53.346;-6.554;2023-04-12T12:24:50;97565.22;;;11.39;39.70
40372;BME280;28564;53.346;-6.554;2023-04-12T12:27:20;97577.22;;;11.45;40.56
40372;BME280;28564;53.346;-6.554;2023-04-12T12:29:59;97570.16;;;10.78;41.51
40372;BME280;28564;53.346;-6.554;2023-04-12T12:32:36;97582.59;;;10.51;43.05
40372;BME280;28564;53.346;-6.554;2023-04-12T12:35:08;97577.24;;;10.27;44.11
40372;BME280;28564;53.346;-6.554;2023-04-12T12:37:48;97582.67;;;9.81;45.11
40372;BME280;28564;53.346;-6.554;2023-04-12T12:40:15;97586.10;;;9.44;46.80
40372;BME280;28564;53.346;-6.554;2023-04-12T12:42:45;97602.87;;;9.46;47.62
40372;BME280;28564;53.346;-6.554;2023-04-12T12:45:12;97604.11;;;9.43;47.85
40372;BME280;28564;53.346;-6.554;2023-04-12T12:47:51;97610.11;;;9.39;47.77
40372;BME280;28564;53.346;-6.554;2023-04-12T12:50:21;97611.44;;;9.08;48.04
40372;BME280;28564;53.346;-6.554;2023-04-12T12:52:49;97616.48;;;8.80;48.46
40372;BME280;28564;53.346;-6.554;2023-04-12T12:55:18;97612.54;;;8.59;49.11
40372;BME280;28564;53.346;-6.554;2023-04-12T12:57:47;97616.78;;;8.69;49.87
40372;BME280;28564;53.346;-6.554;2023-04-12T13:00:17;97611.78;;;8.37;50.25
40372;BME280;28564;53.346;-6.554;2023-04-12T13:02:45;97615.77;;;8.34;50.51
40372;BME280;28564;53.346;-6.554;2023-04-12T13:05:12;97614.10;;;8.51;50.74